Time;durP1;ratioP1;P1;durP2;ratioP2;P2;SDS_P1;SDS_P2;PMS_P1;PMS_P2;Temp;Humidity;BMP_temperature;BMP_pressure;BME280_temperature;BME280_humidity;BME280_pressure;Samples;Min_cycle;Max_cycle;Signal;HPM_P1;HPM_P2
2024/01/02 00:01:17;;;;;;;6.75;1.48;;;6.30;84.50;;;;;;6183125;23;20029;-76
2024/01/02 00:03:44;;;;;;;7.78;1.73;;;6.30;84.40;;;;;;6235162;22;20045;-76
2024/01/02 00:06:15;;;;;;;8.63;1.40;;;6.30;84.50;;;;;;6211927;23;20032;-76
2024/01/02 00:08:42;;;;;;;8.73;1.98;;;6.30;84.60;;;;;;6234897;22;20244;-76
2024/01/02 00:11:09;;;;;;;11.55;1.90;;;6.30;84.60;;;;;;6231782;22;20132;-76
2024/01/02 00:13:36;;;;;;;10.20;1.63;;;6.40;84.60;;;;;;6213627;22;20021;-76
2024/01/02 00:16:04;;;;;;;7.05;1.40;;;6.40;84.70;;;;;;6235675;22;20107;-75
2024/01/02 00:18:32;;;;;;;6.27;1.17;;;6.40;84.70;;;;;;6187114;23;20109;-75
2024/01/02 00:20:59;;;;;;;8.50;1.65;;;6.40;84.70;;;;;;6189138;23;20248;-76
2024/01/02 00:23:26;;;;;;;7.53;1.20;;;6.40;84.80;;;;;;6235525;22;20021;-76
2024/01/02 00:25:53;;;;;;;5.22;1.10;;;6.40;84.90;;;;;;6185680;23;20021;-75
2024/01/02 00:28:20;;;;;;;8.32;1.20;;;6.40;85.00;;;;;;6232262;22;20029;-75
2024/01/02 00:30:47;;;;;;;7.70;1.20;;;6.40;85.00;;;;;;6210324;23;20084;-75
2024/01/02 00:33:14;;;;;;;5.45;1.00;;;6.40;85.30;;;;;;6234715;22;20303;-75
2024/01/02 00:35:43;;;;;;;6.20;1.00;;;6.50;85.30;;;;;;6235030;22;20029;-75
2024/01/02 00:38:10;;;;;;;5.72;1.08;;;6.50;85.40;;;;;;6183553;23;20025;-75
2024/01/02 00:40:37;;;;;;;4.75;0.85;;;6.50;85.50;;;;;;6184162;23;20025;-75
2024/01/02 00:43:04;;;;;;;7.17;1.00;;;6.50;85.50;;;;;;6232586;22;20450;-75
2024/01/02 00:45:31;;;;;;;5.78;1.30;;;6.50;85.60;;;;;;6179908;23;20240;-75
2024/01/02 00:47:58;;;;;;;5.55;0.95;;;6.50;85.70;;;;;;6184542;23;20033;-75
2024/01/02 00:50:26;;;;;;;6.03;0.88;;;6.50;85.80;;;;;;6207997;23;20025;-75
2024/01/02 00:52:54;;;;;;;6.13;0.98;;;6.50;86.00;;;;;;6234711;22;20754;-75
2024/01/02 00:55:21;;;;;;;7.47;0.93;;;6.60;86.00;;;;;;6208589;23;20048;-75
2024/01/02 00:57:48;;;;;;;8.38;1.20;;;6.60;86.20;;;;;;6212249;23;20245;-75
2024/01/02 01:00:16;;;;;;;8.05;1.38;;;6.60;86.20;;;;;;6238276;22;20944;-75
2024/01/02 01:02:43;;;;;;;6.78;0.88;;;6.60;86.30;;;;;;6187063;23;20062;-76
2024/01/02 01:05:10;;;;;;;6.80;0.93;;;6.60;86.30;;;;;;6184829;23;20021;-75
2024/01/02 01:07:37;;;;;;;6.23;0.90;;;6.60;86.40;;;;;;6187949;23;20048;-75
2024/01/02 01:10:06;;;;;;;5.82;0.88;;;6.60;86.70;;;;;;6211805;23;20292;-75
2024/01/02 01:12:33;;;;;;;6.65;0.75;;;6.60;86.70;;;;;;6186614;23;20789;-75
2024/01/02 01:15:00;;;;;;;6.43;1.00;;;6.60;86.60;;;;;;6188089;23;20025;-75
2024/01/02 01:17:27;;;;;;;5.28;1.10;;;6.60;87.00;;;;;;6214806;23;20036;-75
2024/01/02 01:19:54;;;;;;;5.83;0.87;;;6.60;86.90;;;;;;6188073;23;20067;-75
2024/01/02 01:22:21;;;;;;;11.85;1.33;;;6.60;86.90;;;;;;6185541;23;20263;-75
2024/01/02 01:24:48;;;;;;;9.82;1.15;;;6.70;87.00;;;;;;6189465;23;20029;-75
2024/01/02 01:27:16;;;;;;;5.90;1.00;;;6.70;87.10;;;;;;6239583;22;20099;-76
2024/01/02 01:29:43;;;;;;;9.10;1.40;;;6.70;87.20;;;;;;6216255;23;20168;-76
2024/01/02 01:32:10;;;;;;;6.13;1.30;;;6.70;87.30;;;;;;6213058;23;20025;-76
2024/01/02 01:34:38;;;;;;;7.35;1.42;;;6.70;87.30;;;;;;6240551;22;20351;-75
2024/01/02 01:37:05;;;;;;;7.38;1.25;;;6.70;87.30;;;;;;6217267;23;20025;-76
2024/01/02 01:39:32;;;;;;;7.07;1.52;;;6.70;87.50;;;;;;6187862;23;20620;-75
2024/01/02 01:41:59;;;;;;;5.07;1.35;;;6.70;87.50;;;;;;6190209;23;20029;-75
2024/01/02 01:44:28;;;;;;;4.73;1.10;;;6.70;87.60;;;;;;6240371;22;20029;-75
2024/01/02 01:46:55;;;;;;;8.10;1.42;;;6.70;87.60;;;;;;6239052;22;20708;-75
2024/01/02 01:49:23;;;;;;;8.15;1.10;;;6.70;87.80;;;;;;6237769;22;20021;-75
2024/01/02 01:51:52;;;;;;;7.00;1.00;;;6.70;87.70;;;;;;6238247;22;20087;-75
2024/01/02 01:54:20;;;;;;;6.70;1.50;;;6.70;87.80;;;;;;6214426;23;20028;-75
2024/01/02 01:56:47;;;;;;;9.07;1.70;;;6.80;87.90;;;;;;6236468;22;20088;-75
2024/01/02 01:59:14;;;;;;;6.65;1.45;;;6.80;88.00;;;;;;6188663;23;20966;-75
2024/01/02 02:01:45;;;;;;;6.35;1.30;;;6.80;87.90;;;;;;6189239;23;20017;-75
2024/01/02 02:04:12;;;;;;;6.28;1.70;;;6.80;88.20;;;;;;6190613;23;20025;-75
2024/01/02 02:06:39;;;;;;;7.38;1.65;;;6.80;88.20;;;;;;6239458;22;20474;-75
2024/01/02 02:09:06;;;;;;;7.60;1.90;;;6.80;88.10;;;;;;6190572;23;20020;-75
2024/01/02 02:11:34;;;;;;;9.80;2.35;;;6.80;88.20;;;;;;6189561;23;20197;-76
2024/01/02 02:14:01;;;;;;;8.52;2.30;;;6.90;88.20;;;;;;6213057;23;20781;-75
2024/01/02 02:16:28;;;;;;;7.80;2.00;;;6.80;88.20;;;;;;6240761;22;20016;-75
2024/01/02 02:18:57;;;;;;;8.30;2.03;;;6.90;88.20;;;;;;6190969;23;20084;-75
2024/01/02 02:21:25;;;;;;;9.57;2.13;;;6.90;88.20;;;;;;6190255;23;20029;-75
2024/01/02 02:23:53;;;;;;;8.48;2.17;;;6.90;88.30;;;;;;6191577;23;20216;-75
2024/01/02 02:26:20;;;;;;;8.35;2.20;;;6.90;88.30;;;;;;6190272;22;20033;-76
2024/01/02 02:28:47;;;;;;;8.30;2.30;;;6.90;88.30;;;;;;6192373;23;20021;-75
2024/01/02 02:31:14;;;;;;;9.10;2.20;;;6.90;88.40;;;;;;6190301;23;20749;-75
2024/01/02 02:33:41;;;;;;;9.53;2.47;;;6.90;88.40;;;;;;6239627;22;20025;-75
2024/01/02 02:36:08;;;;;;;7.80;2.17;;;6.90;88.50;;;;;;6190609;23;20312;-75
2024/01/02 02:38:35;;;;;;;7.70;1.95;;;6.90;88.40;;;;;;6241869;22;20025;-75
2024/01/02 02:41:04;;;;;;;8.18;2.40;;;6.90;88.40;;;;;;6216890;23;20021;-75
2024/01/02 02:43:31;;;;;;;6.85;1.80;;;7.00;88.40;;;;;;6217192;23;20032;-75
2024/01/02 02:45:58;;;;;;;8.07;2.10;;;7.00;88.40;;;;;;6189499;23;20036;-75
2024/01/02 02:48:25;;;;;;;7.93;2.20;;;7.00;88.50;;;;;;6189359;23;20245;-75
2024/01/02 02:50:52;;;;;;;8.63;2.00;;;7.00;88.40;;;;;;6215032;23;20025;-75
2024/01/02 02:53:19;;;;;;;8.38;2.10;;;7.00;88.50;;;;;;6190072;23;20916;-75
2024/01/02 02:55:46;;;;;;;5.63;1.85;;;7.00;88.50;;;;;;6240290;22;20113;-75
2024/01/02 02:58:15;;;;;;;8.57;2.07;;;7.00;88.60;;;;;;6240485;22;20025;-75
2024/01/02 03:00:42;;;;;;;7.25;2.10;;;7.00;88.60;;;;;;6188578;23;20271;-75
2024/01/02 03:03:09;;;;;;;6.28;1.80;;;7.00;88.60;;;;;;6240033;22;20083;-75
2024/01/02 03:05:36;;;;;;;6.35;1.73;;;7.00;88.60;;;;;;6190895;23;20028;-75
2024/01/02 03:08:03;;;;;;;5.10;1.40;;;7.00;88.70;;;;;;6211485;23;20024;-75
2024/01/02 03:10:30;;;;;;;5.43;1.50;;;7.00;88.70;;;;;;6189986;23;20035;-75
2024/01/02 03:12:58;;;;;;;5.60;1.58;;;7.00;88.70;;;;;;6190079;23;20199;-75
2024/01/02 03:15:26;;;;;;;4.78;1.23;;;7.00;88.70;;;;;;6216197;22;21261;-75
2024/01/02 03:17:53;;;;;;;4.50;1.40;;;7.00;88.60;;;;;;6188140;23;20045;-75
2024/01/02 03:20:20;;;;;;;5.72;1.52;;;7.00;88.60;;;;;;6212135;23;20055;-74
2024/01/02 03:22:48;;;;;;;6.70;1.50;;;7.00;88.60;;;;;;6239536;22;20021;-75
2024/01/02 03:25:15;;;;;;;4.68;1.20;;;7.00;88.50;;;;;;6185660;23;20291;-75
2024/01/02 03:27:42;;;;;;;4.95;1.20;;;7.00;88.50;;;;;;6239278;22;20025;-75
2024/01/02 03:30:10;;;;;;;5.25;1.40;;;7.00;88.60;;;;;;6216267;23;20025;-74
2024/01/02 03:32:38;;;;;;;3.60;1.00;;;7.00;88.60;;;;;;6213406;23;20500;-74
2024/01/02 03:35:05;;;;;;;4.27;1.23;;;7.00;88.60;;;;;;6241066;22;20093;-74
2024/01/02 03:37:32;;;;;;;5.15;1.50;;;7.10;88.60;;;;;;6240559;22;20233;-75
2024/01/02 03:39:59;;;;;;;6.53;1.67;;;7.00;88.60;;;;;;6240945;22;20052;-75
2024/01/02 03:42:26;;;;;;;5.28;1.35;;;7.10;88.60;;;;;;6214024;23;20752;-74
2024/01/02 03:44:53;;;;;;;8.05;1.73;;;7.10;88.60;;;;;;6242021;22;20052;-74
2024/01/02 03:47:20;;;;;;;4.27;1.10;;;7.10;88.70;;;;;;6242675;22;20082;-74
2024/01/02 03:49:49;;;;;;;5.47;1.50;;;7.10;88.70;;;;;;6218920;23;20233;-74
2024/01/02 03:52:16;;;;;;;5.53;1.50;;;7.10;88.60;;;;;;6190766;23;20088;-74
2024/01/02 03:54:43;;;;;;;6.63;1.55;;;7.10;88.70;;;;;;6191120;23;20102;-74
2024/01/02 03:57:10;;;;;;;5.55;1.50;;;7.10;88.90;;;;;;6219170;22;20025;-74
2024/01/02 03:59:37;;;;;;;5.87;1.70;;;7.20;88.90;;;;;;6242676;22;20071;-74
2024/01/02 04:02:05;;;;;;;2.65;0.65;;;7.20;88.80;;;;;;6213057;23;20268;-74
2024/01/02 04:04:32;;;;;;;4.88;1.20;;;7.20;88.90;;;;;;6241532;22;20013;-74
2024/01/02 04:07:01;;;;;;;4.38;0.90;;;7.20;88.90;;;;;;6241192;22;20032;-74
2024/01/02 04:09:28;;;;;;;5.72;1.50;;;7.20;88.80;;;;;;6189873;23;20070;-74
2024/01/02 04:11:55;;;;;;;4.03;0.93;;;7.20;88.80;;;;;;6240836;22;20133;-74
2024/01/02 04:14:22;;;;;;;6.57;1.00;;;7.20;88.80;;;;;;6241651;22;20249;-74
2024/01/02 04:16:49;;;;;;;5.72;1.10;;;7.20;88.70;;;;;;6242445;22;21006;-74
2024/01/02 04:19:17;;;;;;;3.03;1.10;;;7.20;88.60;;;;;;6215636;23;20020;-74
2024/01/02 04:21:44;;;;;;;3.88;1.00;;;7.20;88.60;;;;;;6219741;23;20076;-74
2024/01/02 04:24:13;;;;;;;5.10;0.90;;;7.20;88.60;;;;;;6221194;23;20040;-74
2024/01/02 04:26:39;;;;;;;3.38;0.90;;;7.20;88.50;;;;;;6192696;23;20240;-74
2024/01/02 04:29:06;;;;;;;3.65;0.60;;;7.20;88.60;;;;;;6193950;23;20025;-74
2024/01/02 04:31:33;;;;;;;4.15;0.90;;;7.20;88.50;;;;;;6223506;22;20028;-74
2024/01/02 04:34:00;;;;;;;3.67;0.80;;;7.20;88.40;;;;;;6246923;22;20025;-74
2024/01/02 04:36:27;;;;;;;3.13;0.63;;;7.20;88.60;;;;;;6194306;23;20059;-74
2024/01/02 04:38:54;;;;;;;4.10;0.85;;;7.20;88.60;;;;;;6247627;22;20315;-74
2024/01/02 04:41:23;;;;;;;3.33;0.60;;;7.20;88.60;;;;;;6225260;23;20024;-74
2024/01/02 04:43:50;;;;;;;3.45;0.50;;;7.20;88.50;;;;;;6250621;22;20029;-74
2024/01/02 04:46:17;;;;;;;3.65;0.63;;;7.30;88.50;;;;;;6227964;23;20036;-74
2024/01/02 04:48:44;;;;;;;3.63;0.60;;;7.20;88.40;;;;;;6226570;23;20080;-74
2024/01/02 04:51:11;;;;;;;4.55;0.82;;;7.20;88.40;;;;;;6252007;22;20220;-74
2024/01/02 04:53:38;;;;;;;3.95;0.50;;;7.20;88.50;;;;;;6225062;23;20028;-74
2024/01/02 04:56:05;;;;;;;3.60;0.60;;;7.20;88.60;;;;;;6253955;22;20046;-74
2024/01/02 04:58:34;;;;;;;2.60;0.50;;;7.20;88.60;;;;;;6210844;23;20077;-74
2024/01/02 05:01:02;;;;;;;3.40;0.60;;;7.20;88.60;;;;;;6233125;22;20035;-74
2024/01/02 05:03:29;;;;;;;3.92;0.45;;;7.20;88.60;;;;;;6233484;22;20312;-74
2024/01/02 05:05:56;;;;;;;3.33;0.50;;;7.20;88.60;;;;;;6210634;23;20025;-74
2024/01/02 05:08:24;;;;;;;2.47;0.40;;;7.20;88.60;;;;;;6233502;22;20036;-74
2024/01/02 05:10:51;;;;;;;3.53;0.60;;;7.20;88.80;;;;;;6229600;22;20096;-74
2024/01/02 05:13:18;;;;;;;3.57;0.50;;;7.20;88.90;;;;;;6208254;23;20029;-74
2024/01/02 05:15:46;;;;;;;2.30;0.45;;;7.20;89.00;;;;;;6182902;23;20860;-74
2024/01/02 05:18:14;;;;;;;4.03;0.70;;;7.30;89.00;;;;;;6232802;22;20054;-74
2024/01/02 05:20:41;;;;;;;1.95;0.40;;;7.40;88.90;;;;;;6233090;22;20025;-74
2024/01/02 05:23:08;;;;;;;2.33;0.43;;;7.40;89.00;;;;;;6208168;23;20028;-74
2024/01/02 05:25:35;;;;;;;2.30;0.37;;;7.40;88.90;;;;;;6182132;23;20024;-74
2024/01/02 05:28:02;;;;;;;2.40;0.47;;;7.40;89.00;;;;;;6179807;23;20300;-73
2024/01/02 05:30:29;;;;;;;2.10;0.50;;;7.40;88.90;;;;;;6232949;22;20021;-74
2024/01/02 05:32:57;;;;;;;2.20;0.38;;;7.40;89.00;;;;;;6233897;22;20056;-74
2024/01/02 05:35:24;;;;;;;2.70;0.50;;;7.40;88.90;;;;;;6208855;23;20087;-75
2024/01/02 05:37:51;;;;;;;3.53;0.53;;;7.40;88.80;;;;;;6232843;22;20103;-74
2024/01/02 05:40:18;;;;;;;2.47;0.40;;;7.40;88.80;;;;;;6207899;23;20324;-74
2024/01/02 05:42:45;;;;;;;2.13;0.40;;;7.40;88.70;;;;;;6210969;23;20643;-74
2024/01/02 05:45:13;;;;;;;2.85;0.32;;;7.40;88.60;;;;;;6230920;22;20103;-74
2024/01/02 05:47:40;;;;;;;2.20;0.50;;;7.40;88.70;;;;;;6209373;23;20347;-74
2024/01/02 05:50:08;;;;;;;3.67;0.33;;;7.40;88.60;;;;;;6234061;22;20026;-74
2024/01/02 05:52:35;;;;;;;2.13;0.30;;;7.40;88.70;;;;;;6209439;23;21040;-74
2024/01/02 05:55:02;;;;;;;2.53;0.50;;;7.30;88.70;;;;;;6210592;23;20056;-73
2024/01/02 05:57:29;;;;;;;2.40;0.50;;;7.30;88.70;;;;;;6233317;22;20167;-74
2024/01/02 05:59:56;;;;;;;3.85;0.50;;;7.30;88.90;;;;;;6183249;23;20096;-74
2024/01/02 06:02:23;;;;;;;1.87;0.30;;;7.30;89.00;;;;;;6206911;22;20036;-73
2024/01/02 06:04:50;;;;;;;1.73;0.32;;;7.30;89.10;;;;;;6232373;22;20324;-74
2024/01/02 06:07:19;;;;;;;2.35;0.30;;;7.40;89.10;;;;;;6208775;23;20069;-73
2024/01/02 06:09:46;;;;;;;2.55;0.40;;;7.40;89.00;;;;;;6233201;22;20024;-74
2024/01/02 06:12:13;;;;;;;1.83;0.40;;;7.40;89.00;;;;;;6208464;23;20033;-74
2024/01/02 06:14:40;;;;;;;1.90;0.50;;;7.40;89.00;;;;;;6233029;22;20048;-73
2024/01/02 06:17:07;;;;;;;1.77;0.40;;;7.40;89.00;;;;;;6209849;23;20264;-74
2024/01/02 06:19:34;;;;;;;1.60;0.30;;;7.40;89.10;;;;;;6210071;23;20032;-73
2024/01/02 06:22:01;;;;;;;2.50;0.50;;;7.40;89.20;;;;;;6178906;23;20059;-73
2024/01/02 06:24:30;;;;;;;2.00;0.40;;;7.40;89.30;;;;;;6183120;23;20021;-74
2024/01/02 06:26:56;;;;;;;1.97;0.40;;;7.40;89.30;;;;;;6233817;22;20059;-74
2024/01/02 06:29:25;;;;;;;1.73;0.30;;;7.40;89.10;;;;;;6210419;22;20247;-74
2024/01/02 06:31:52;;;;;;;1.60;0.35;;;7.40;89.20;;;;;;6231390;22;20029;-74
2024/01/02 06:34:19;;;;;;;2.33;0.30;;;7.40;89.20;;;;;;6210279;23;20025;-74
2024/01/02 06:36:46;;;;;;;2.05;0.40;;;7.50;89.20;;;;;;6233907;22;20075;-74
2024/01/02 06:39:15;;;;;;;2.27;0.30;;;7.50;89.20;;;;;;6229817;22;20025;-74
2024/01/02 06:41:44;;;;;;;1.48;0.30;;;7.50;89.20;;;;;;6233012;22;20237;-73
2024/01/02 06:44:12;;;;;;;1.58;0.30;;;7.50;89.30;;;;;;6234366;22;20116;-73
2024/01/02 06:46:39;;;;;;;1.77;0.40;;;7.50;89.30;;;;;;6182939;23;20033;-74
2024/01/02 06:49:06;;;;;;;1.50;0.30;;;7.50;89.30;;;;;;6234110;22;20048;-73
2024/01/02 06:51:33;;;;;;;2.10;0.40;;;7.50;89.30;;;;;;6182426;23;20052;-73
2024/01/02 06:54:01;;;;;;;1.65;0.32;;;7.50;89.30;;;;;;6234495;22;20291;-73
2024/01/02 06:56:28;;;;;;;2.50;0.50;;;7.60;89.50;;;;;;6229887;22;20025;-74
2024/01/02 06:58:56;;;;;;;1.88;0.30;;;7.60;89.60;;;;;;6233431;22;20021;-73
2024/01/02 07:01:23;;;;;;;1.70;0.38;;;7.60;89.60;;;;;;6232398;22;20096;-73
2024/01/02 07:03:50;;;;;;;1.60;0.40;;;7.60;89.70;;;;;;6233637;22;20021;-73
2024/01/02 07:06:18;;;;;;;1.90;0.40;;;7.60;89.70;;;;;;6232417;22;20662;-73
2024/01/02 07:08:45;;;;;;;2.17;0.60;;;7.60;89.70;;;;;;6233898;22;20025;-73
2024/01/02 07:11:12;;;;;;;2.70;0.50;;;7.70;89.90;;;;;;6210916;23;20029;-73
2024/01/02 07:13:39;;;;;;;2.13;0.50;;;7.80;90.00;;;;;;6231500;22;20084;-73
2024/01/02 07:16:08;;;;;;;3.43;1.00;;;7.80;90.10;;;;;;6234657;22;20087;-73
2024/01/02 07:18:35;;;;;;;2.45;0.60;;;7.80;90.20;;;;;;6234948;22;20300;-73
2024/01/02 07:21:02;;;;;;;2.92;0.88;;;7.80;90.30;;;;;;6233021;22;20036;-73
2024/01/02 07:23:29;;;;;;;2.70;0.75;;;7.80;90.50;;;;;;6183703;23;20033;-73
2024/01/02 07:25:56;;;;;;;2.47;0.60;;;7.80;90.40;;;;;;6234133;22;20141;-73
2024/01/02 07:28:23;;;;;;;2.70;0.80;;;8.00;90.70;;;;;;6232792;22;20032;-73
2024/01/02 07:30:50;;;;;;;2.80;0.90;;;8.00;90.70;;;;;;6206581;23;20221;-73
2024/01/02 07:33:19;;;;;;;3.28;1.10;;;8.00;91.00;;;;;;6209125;23;20025;-73
2024/01/02 07:35:46;;;;;;;2.83;0.90;;;8.00;91.00;;;;;;6208120;22;20021;-73
2024/01/02 07:38:14;;;;;;;3.83;1.00;;;8.10;91.20;;;;;;6207320;23;20091;-73
2024/01/02 07:40:41;;;;;;;2.73;0.80;;;8.10;91.30;;;;;;6205442;23;20029;-73
2024/01/02 07:43:08;;;;;;;3.28;0.90;;;8.10;91.50;;;;;;6180130;23;21146;-73
2024/01/02 07:45:35;;;;;;;2.83;0.82;;;8.20;91.60;;;;;;6229411;22;20119;-73
2024/01/02 07:48:02;;;;;;;3.25;0.90;;;8.20;91.70;;;;;;6227877;22;20052;-73
2024/01/02 07:50:30;;;;;;;2.78;0.82;;;8.20;91.70;;;;;;6232374;22;20064;-73
2024/01/02 07:52:57;;;;;;;4.57;1.30;;;8.30;91.90;;;;;;6233520;22;20052;-73
2024/01/02 07:55:24;;;;;;;3.38;0.90;;;8.40;92.00;;;;;;6233660;22;20780;-73
2024/01/02 07:57:51;;;;;;;4.63;0.95;;;8.40;92.20;;;;;;6210083;23;20021;-73
2024/01/02 08:00:19;;;;;;;4.82;1.60;;;8.40;92.40;;;;;;6232570;22;20100;-73
2024/01/02 08:02:46;;;;;;;5.38;1.40;;;8.50;92.50;;;;;;6207849;23;20032;-73
2024/01/02 08:05:13;;;;;;;5.40;1.87;;;8.60;92.60;;;;;;6179565;23;20060;-73
2024/01/02 08:07:41;;;;;;;9.15;1.83;;;8.60;92.90;;;;;;6234131;22;20221;-73
2024/01/02 08:10:09;;;;;;;7.40;2.42;;;8.70;93.10;;;;;;6232563;22;20055;-73
2024/01/02 08:12:36;;;;;;;6.35;2.40;;;8.80;93.30;;;;;;6232912;22;20020;-73
2024/01/02 08:15:03;;;;;;;6.90;2.00;;;8.90;93.40;;;;;;6232754;22;20091;-73
2024/01/02 08:17:30;;;;;;;6.93;2.10;;;8.90;93.50;;;;;;6182211;23;20480;-73
2024/01/02 08:19:57;;;;;;;4.75;1.40;;;9.00;93.50;;;;;;6181569;23;20776;-73
2024/01/02 08:22:24;;;;;;;8.93;3.30;;;9.00;93.70;;;;;;6205505;23;20057;-73
2024/01/02 08:24:53;;;;;;;11.60;3.05;;;9.20;93.80;;;;;;6232644;22;20104;-73
2024/01/02 08:27:20;;;;;;;5.45;1.80;;;9.20;94.00;;;;;;6208570;23;20075;-73
2024/01/02 08:29:48;;;;;;;8.30;2.40;;;9.30;93.90;;;;;;6181899;23;20033;-73
2024/01/02 08:32:15;;;;;;;9.50;1.83;;;9.30;93.90;;;;;;6207493;23;20418;-73
2024/01/02 08:34:42;;;;;;;8.25;2.00;;;9.40;93.90;;;;;;6233320;22;20025;-73
2024/01/02 08:37:09;;;;;;;7.68;1.92;;;9.40;94.00;;;;;;6232966;22;20051;-73
2024/01/02 08:39:36;;;;;;;12.73;2.20;;;9.50;94.00;;;;;;6229642;22;20108;-73
2024/01/02 08:42:05;;;;;;;7.17;1.53;;;9.60;94.00;;;;;;6232133;22;20037;-73
2024/01/02 08:44:33;;;;;;;8.50;1.90;;;9.60;93.90;;;;;;6232959;22;21070;-73
2024/01/02 08:47:00;;;;;;;6.25;1.25;;;9.70;94.00;;;;;;6208883;23;20025;-73
2024/01/02 08:49:28;;;;;;;11.15;2.20;;;9.70;94.00;;;;;;6230973;22;20136;-74
2024/01/02 08:51:55;;;;;;;7.28;1.13;;;9.80;93.80;;;;;;6206360;23;20117;-74
2024/01/02 08:54:22;;;;;;;11.33;1.67;;;9.90;93.80;;;;;;6208377;23;20049;-73
2024/01/02 08:56:48;;;;;;;12.90;1.40;;;9.90;93.70;;;;;;6206273;23;20260;-74
2024/01/02 08:59:17;;;;;;;10.27;1.33;;;10.00;93.70;;;;;;6233907;22;20059;-73
2024/01/02 09:01:50;;;;;;;8.15;0.93;;;10.00;93.60;;;;;;6182440;23;20076;-74
2024/01/02 09:04:17;;;;;;;10.45;1.67;;;10.00;93.60;;;;;;6233394;22;20103;-74
2024/01/02 09:06:45;;;;;;;15.40;1.80;;;10.00;93.60;;;;;;6182465;23;20581;-73
2024/01/02 09:09:12;;;;;;;10.85;1.27;;;10.10;93.60;;;;;;6234161;22;20272;-73
2024/01/02 09:11:39;;;;;;;15.55;1.70;;;10.20;93.50;;;;;;6208224;23;20196;-74
2024/01/02 09:14:06;;;;;;;11.68;1.10;;;10.20;93.40;;;;;;6230305;22;20049;-74
2024/01/02 09:16:38;;;;;;;8.90;1.00;;;10.20;93.30;;;;;;6207457;22;20055;-74
2024/01/02 09:19:05;;;;;;;12.87;1.73;;;10.30;93.20;;;;;;6232427;22;20029;-74
2024/01/02 09:21:32;;;;;;;7.82;1.15;;;10.30;93.10;;;;;;6231180;22;20384;-75
2024/01/02 09:23:59;;;;;;;11.52;1.88;;;10.40;92.90;;;;;;6206154;23;20174;-75
2024/01/02 09:26:27;;;;;;;10.25;1.27;;;10.40;92.70;;;;;;6208611;23;20107;-75
2024/01/02 09:28:54;;;;;;;10.82;1.52;;;10.40;92.60;;;;;;6237221;22;20044;-75
2024/01/02 09:31:25;;;;;;;10.53;1.40;;;10.50;92.60;;;;;;6177766;23;20084;-74
2024/01/02 09:33:53;;;;;;;13.55;1.70;;;10.50;92.30;;;;;;6176444;23;20331;-74
2024/01/02 09:36:20;;;;;;;11.45;1.42;;;10.60;92.10;;;;;;6230666;22;20021;-74
2024/01/02 09:38:47;;;;;;;8.35;0.98;;;10.60;92.00;;;;;;6230728;22;20083;-75
2024/01/02 09:41:43;;;;;;;10.18;0.90;;;10.60;91.90;;;;;;6228512;22;20053;-74
2024/01/02 09:44:23;;;;;;;7.97;1.17;;;10.60;91.80;;;;;;6195801;23;20021;-75
2024/01/02 09:46:59;;;;;;;9.55;1.10;;;10.60;91.70;;;;;;6210246;23;20255;-75
2024/01/02 09:49:36;;;;;;;10.20;1.60;;;10.70;91.60;;;;;;6182303;23;20029;-75
2024/01/02 09:52:27;;;;;;;11.07;1.25;;;10.70;91.50;;;;;;6231644;22;21289;-75
2024/01/02 09:55:03;;;;;;;12.68;1.27;;;10.70;91.60;;;;;;6182269;23;20110;-75
2024/01/02 09:57:40;;;;;;;9.53;1.50;;;10.70;91.50;;;;;;6232675;22;20204;-75
2024/01/02 10:00:16;;;;;;;8.48;1.38;;;10.70;91.50;;;;;;6208829;23;20292;-75
2024/01/02 10:02:58;;;;;;;14.18;1.85;;;10.70;91.40;;;;;;6232797;22;20426;-75
2024/01/02 10:05:43;;;;;;;10.20;1.15;;;10.70;91.50;;;;;;6233033;22;20025;-75
2024/01/02 10:08:35;;;;;;;12.52;1.48;;;10.70;91.40;;;;;;6205468;22;20032;-75
2024/01/02 10:11:11;;;;;;;14.63;1.77;;;10.70;91.30;;;;;;6231893;22;20513;-75
2024/01/02 10:13:48;;;;;;;10.65;1.42;;;10.70;91.30;;;;;;6180433;23;20260;-75
2024/01/02 10:16:26;;;;;;;8.73;1.23;;;10.70;91.20;;;;;;6209094;22;20021;-75
2024/01/02 10:19:08;;;;;;;10.30;1.20;;;10.80;91.20;;;;;;6209250;23;20021;-75
2024/01/02 10:21:43;;;;;;;8.85;1.23;;;10.80;91.00;;;;;;6231720;22;20025;-75
2024/01/02 10:24:24;;;;;;;12.57;1.40;;;10.80;91.10;;;;;;6232583;22;20021;-74
2024/01/02 10:27:03;;;;;;;10.15;1.55;;;10.80;90.90;;;;;;6229268;22;20252;-75
2024/01/02 10:29:42;;;;;;;12.73;1.40;;;10.80;90.80;;;;;;6233057;22;20562;-75
2024/01/02 10:32:12;;;;;;;11.95;1.63;;;10.80;90.70;;;;;;6231234;22;20800;-75
2024/01/02 10:34:52;;;;;;;10.50;1.48;;;10.80;90.70;;;;;;6231092;22;20032;-75
2024/01/02 10:37:26;;;;;;;11.17;1.63;;;10.90;90.60;;;;;;6232608;22;20072;-76
2024/01/02 10:40:02;;;;;;;11.07;1.50;;;10.90;90.50;;;;;;6209059;23;20221;-75
2024/01/02 10:42:47;;;;;;;12.57;1.90;;;10.90;90.50;;;;;;6230887;22;20121;-75
2024/01/02 10:45:18;;;;;;;10.63;1.70;;;10.90;90.50;;;;;;6203869;23;20083;-75
2024/01/02 10:48:05;;;;;;;10.30;1.42;;;11.00;90.30;;;;;;6230261;22;20025;-75
2024/01/02 10:50:37;;;;;;;10.93;1.73;;;11.00;90.30;;;;;;6228924;22;20507;-75
2024/01/02 10:53:27;;;;;;;10.85;1.48;;;11.00;90.30;;;;;;6206867;22;20244;-74
2024/01/02 10:56:06;;;;;;;11.85;1.58;;;11.00;90.40;;;;;;6228100;22;20495;-73
2024/01/02 10:58:42;;;;;;;13.43;1.63;;;11.00;90.30;;;;;;6228832;22;20025;-75
2024/01/02 11:01:16;;;;;;;12.35;1.40;;;11.00;90.30;;;;;;6225416;22;20020;-74
2024/01/02 11:03:52;;;;;;;11.23;1.87;;;11.00;90.30;;;;;;6207106;23;20112;-74
2024/01/02 11:06:27;;;;;;;10.18;1.40;;;11.00;90.20;;;;;;6204606;23;20741;-74
2024/01/02 11:09:06;;;;;;;14.57;1.90;;;11.10;90.10;;;;;;6206802;23;20690;-74
2024/01/02 11:11:36;;;;;;;10.88;1.60;;;11.10;90.10;;;;;;6206794;23;20025;-74
2024/01/02 11:14:03;;;;;;;13.75;1.75;;;11.10;90.00;;;;;;6231095;22;20111;-74
2024/01/02 11:16:31;;;;;;;11.53;1.47;;;11.10;90.00;;;;;;6228761;22;20025;-74
2024/01/02 11:19:00;;;;;;;13.07;1.63;;;11.10;90.00;;;;;;6205381;23;20248;-74
2024/01/02 11:21:42;;;;;;;12.95;1.77;;;11.10;90.00;;;;;;6227081;22;20212;-74
2024/01/02 11:24:13;;;;;;;14.23;1.90;;;11.10;90.00;;;;;;6228643;22;20087;-73
2024/01/02 11:26:44;;;;;;;9.80;1.52;;;11.10;89.90;;;;;;6227723;22;20316;-74
2024/01/02 11:29:16;;;;;;;16.90;2.80;;;11.10;89.90;;;;;;6203662;23;20214;-75
2024/01/02 11:31:45;;;;;;;13.55;1.67;;;11.10;89.80;;;;;;6230723;22;20244;-74
2024/01/02 11:34:28;;;;;;;15.93;1.90;;;11.10;89.70;;;;;;6206718;23;20036;-76
2024/01/02 11:37:05;;;;;;;17.10;2.40;;;11.10;89.70;;;;;;6228335;22;20025;-75
2024/01/02 11:39:38;;;;;;;18.23;2.65;;;11.20;89.70;;;;;;6229591;22;20516;-75
2024/01/02 11:42:17;;;;;;;22.33;3.27;;;11.20;89.70;;;;;;6205186;23;20099;-73
2024/01/02 11:44:58;;;;;;;16.63;2.92;;;11.20;89.70;;;;;;6205366;23;20280;-74
2024/01/02 11:47:34;;;;;;;15.68;2.47;;;11.30;89.50;;;;;;6227383;22;20650;-74
2024/01/02 11:50:04;;;;;;;18.00;2.78;;;11.20;89.50;;;;;;6205232;22;20466;-75
2024/01/02 11:52:33;;;;;;;15.20;2.45;;;11.30;89.60;;;;;;6205217;22;20442;-74
2024/01/02 11:55:13;;;;;;;16.60;2.77;;;11.30;89.60;;;;;;6227515;22;20522;-74
2024/01/02 11:57:51;;;;;;;19.20;2.47;;;11.20;89.60;;;;;;6209685;23;20328;-76
2024/01/02 12:00:24;;;;;;;15.48;2.65;;;11.30;89.70;;;;;;6233231;22;20480;-74
2024/01/02 12:02:59;;;;;;;15.38;2.95;;;11.30;89.70;;;;;;6210147;23;20061;-75
2024/01/02 12:05:38;;;;;;;15.10;2.95;;;11.30;89.80;;;;;;6231622;22;20369;-76
2024/01/02 12:08:10;;;;;;;16.50;2.80;;;11.30;89.80;;;;;;6233233;22;20025;-75
2024/01/02 12:10:47;;;;;;;15.43;2.88;;;11.30;89.70;;;;;;6207416;23;20348;-74
2024/01/02 12:13:25;;;;;;;14.82;2.72;;;11.30;89.80;;;;;;6229721;22;20031;-75
2024/01/02 12:15:54;;;;;;;16.00;2.72;;;11.30;89.80;;;;;;6232843;22;20029;-74
2024/01/02 12:18:22;;;;;;;15.10;2.70;;;11.30;89.70;;;;;;6208568;23;20398;-76
2024/01/02 12:20:56;;;;;;;18.90;3.37;;;11.30;89.70;;;;;;6204093;23;20024;-76
2024/01/02 12:23:24;;;;;;;17.65;3.25;;;11.30;89.80;;;;;;6209014;23;20244;-74
2024/01/02 12:25:56;;;;;;;19.17;3.67;;;11.30;89.80;;;;;;6231926;22;20029;-76
2024/01/02 12:28:25;;;;;;;20.77;4.63;;;11.30;89.70;;;;;;6179544;23;20025;-76
2024/01/02 12:31:01;;;;;;;18.77;3.30;;;11.30;89.70;;;;;;6227535;22;20045;-77
2024/01/02 12:33:33;;;;;;;22.37;4.00;;;11.30;89.70;;;;;;6230328;22;20092;-76
2024/01/02 12:36:11;;;;;;;18.60;3.80;;;11.30;89.80;;;;;;6229988;22;20690;-76
2024/01/02 12:38:47;;;;;;;17.92;3.40;;;11.30;89.70;;;;;;6229805;22;20031;-76
2024/01/02 12:41:20;;;;;;;21.27;3.63;;;11.30;89.70;;;;;;6229836;22;20013;-74
2024/01/02 12:43:51;;;;;;;13.30;3.50;;;11.30;89.70;;;;;;6232650;22;20017;-75
2024/01/02 12:46:25;;;;;;;15.67;3.40;;;11.30;89.70;;;;;;6206838;23;20489;-74
2024/01/02 12:48:59;;;;;;;18.25;3.50;;;11.30;89.60;;;;;;6205939;23;20269;-76
2024/01/02 12:51:30;;;;;;;17.35;3.45;;;11.30;89.50;;;;;;6203025;23;20693;-76
2024/01/02 12:54:02;;;;;;;16.10;3.25;;;11.30;89.50;;;;;;6231141;22;20102;-75
2024/01/02 12:56:32;;;;;;;17.00;3.78;;;11.30;89.50;;;;;;6230844;22;20032;-74
2024/01/02 12:59:04;;;;;;;16.33;3.80;;;11.30;89.50;;;;;;6207564;23;20025;-75
2024/01/02 13:01:31;;;;;;;16.15;3.55;;;11.30;89.50;;;;;;6231498;22;20273;-75